Time;durP1;ratioP1;P1;durP2;ratioP2;P2;SDS_P1;SDS_P2;PMS_P1;PMS_P2;Temp;Humidity;BMP_temperature;BMP_pressure;BME280_temperature;BME280_humidity;BME280_pressure;Samples;Min_cycle;Max_cycle;Signal;HPM_P1;HPM_P2
2022/10/13 00:00:20;;;;;;;3.97;3.28;;;;;;;;;;6122675;23;20045;-80
2022/10/13 00:02:46;;;;;;;3.97;2.95;;;;;;;;;;6122171;23;20110;-79
2022/10/13 00:05:13;;;;;;;3.13;2.85;;;;;;;;;;6096491;23;20022;-79
2022/10/13 00:07:39;;;;;;;7.95;2.55;;;;;;;;;;6121877;23;20014;-80
2022/10/13 00:10:05;;;;;;;3.20;2.92;;;;;;;;;;6121934;23;20072;-79
2022/10/13 00:12:35;;;;;;;2.97;2.50;;;;;;;;;;6096245;23;20145;-78
2022/10/13 00:15:05;;;;;;;5.95;2.75;;;;;;;;;;6095823;23;20014;-80
2022/10/13 00:17:31;;;;;;;2.63;2.42;;;;;;;;;;6096134;23;20406;-79
2022/10/13 00:19:58;;;;;;;3.20;2.88;;;;;;;;;;6121306;23;20009;-79
2022/10/13 00:22:26;;;;;;;2.83;2.53;;;;;;;;;;6121810;23;20010;-78
2022/10/13 00:24:52;;;;;;;3.63;3.22;;;;;;;;;;6095744;23;20045;-79
2022/10/13 15:56:59;;;;;;;9.38;7.03;;;;;;;;;;6172228;23;20161;-74
2022/10/13 15:59:24;;;;;;;6.80;6.30;;;;;;;;;;6150649;23;20030;-74
2022/10/13 16:01:50;;;;;;;7.03;6.43;;;;;;;;;;6125318;23;20017;-74
2022/10/13 16:04:16;;;;;;;6.25;5.65;;;;;;;;;;6151335;23;20048;-74
2022/10/13 16:06:42;;;;;;;7.93;7.25;;;;;;;;;;6151483;23;20065;-74
2022/10/13 16:09:08;;;;;;;7.45;6.75;;;;;;;;;;6155039;23;20016;-74
2022/10/13 16:11:34;;;;;;;7.78;6.53;;;;;;;;;;6180488;23;20029;-74
2022/10/13 16:14:00;;;;;;;8.05;7.22;;;;;;;;;;6130565;23;20104;-74
2022/10/13 16:16:27;;;;;;;6.75;5.63;;;;;;;;;;6180301;23;20454;-74
2022/10/13 16:18:53;;;;;;;6.63;6.03;;;;;;;;;;6181202;23;20404;-74
2022/10/13 16:21:20;;;;;;;10.27;6.68;;;;;;;;;;6154649;23;20043;-74
2022/10/13 16:23:46;;;;;;;8.05;6.43;;;;;;;;;;6181144;23;20092;-74
2022/10/13 16:26:12;;;;;;;6.85;6.25;;;;;;;;;;6180871;23;20067;-75
2022/10/13 16:28:38;;;;;;;6.88;6.28;;;;;;;;;;6181089;23;20099;-74
2022/10/13 16:31:06;;;;;;;7.35;6.75;;;;;;;;;;6154054;23;20028;-74
2022/10/13 16:33:34;;;;;;;7.30;6.28;;;;;;;;;;6154863;23;20047;-74
2022/10/13 16:36:03;;;;;;;7.50;6.88;;;;;;;;;;6181080;23;20024;-74
2022/10/13 16:38:30;;;;;;;7.95;7.25;;;;;;;;;;6154814;23;20017;-74
2022/10/13 16:40:56;;;;;;;9.80;8.68;;;;;;;;;;6154599;23;20079;-74
2022/10/13 16:43:21;;;;;;;9.07;7.03;;;;;;;;;;6180816;23;20090;-74
2022/10/13 16:45:56;;;;;;;9.30;7.53;;;;;;;;;;6154400;23;20019;-74
2022/10/13 16:48:22;;;;;;;13.38;7.57;;;;;;;;;;6154496;23;20016;-74
2022/10/13 16:50:48;;;;;;;9.07;8.25;;;;;;;;;;6180332;23;20025;-74
2022/10/13 16:53:18;;;;;;;10.57;8.00;;;;;;;;;;6180544;23;20040;-74
2022/10/13 16:55:44;;;;;;;15.00;8.63;;;;;;;;;;6154443;23;20381;-74
2022/10/13 16:58:12;;;;;;;11.50;8.77;;;;;;;;;;6180350;23;20100;-75
2022/10/13 17:00:38;;;;;;;11.20;7.90;;;;;;;;;;6153610;23;20060;-74
2022/10/13 17:03:04;;;;;;;8.38;7.68;;;;;;;;;;6180681;23;20040;-74
2022/10/13 17:05:30;;;;;;;8.32;7.20;;;;;;;;;;6180792;23;20012;-76
2022/10/13 17:07:56;;;;;;;8.23;7.43;;;;;;;;;;6154095;23;20044;-74
2022/10/13 17:10:23;;;;;;;9.55;8.05;;;;;;;;;;6180569;23;20013;-74
2022/10/13 17:12:50;;;;;;;8.10;7.40;;;;;;;;;;6180418;23;20012;-74
2022/10/13 17:15:16;;;;;;;12.93;8.05;;;;;;;;;;6180066;23;20019;-75
2022/10/13 17:17:42;;;;;;;8.57;7.68;;;;;;;;;;6153768;23;20013;-75
2022/10/13 17:20:10;;;;;;;12.23;7.57;;;;;;;;;;6180246;23;20013;-76
2022/10/13 17:22:36;;;;;;;8.43;7.63;;;;;;;;;;6180522;23;20012;-77
2022/10/13 17:25:03;;;;;;;10.43;7.05;;;;;;;;;;6152530;23;20020;-76
2022/10/13 17:27:29;;;;;;;16.83;7.72;;;;;;;;;;6153941;23;20067;-75
2022/10/13 17:29:54;;;;;;;14.20;7.65;;;;;;;;;;6178592;23;20449;-75
2022/10/13 17:32:21;;;;;;;15.07;7.80;;;;;;;;;;6179492;23;20025;-77
2022/10/13 17:34:46;;;;;;;13.07;8.23;;;;;;;;;;6179632;23;20013;-77
2022/10/13 17:37:12;;;;;;;38.35;18.98;;;;;;;;;;6153229;23;20013;-77
2022/10/13 17:39:38;;;;;;;13.00;6.82;;;;;;;;;;6153070;23;20009;-76
2022/10/13 17:42:05;;;;;;;10.13;6.15;;;;;;;;;;6153207;23;20021;-74
2022/10/13 17:44:31;;;;;;;11.00;6.80;;;;;;;;;;6179676;23;20016;-74
2022/10/13 17:46:57;;;;;;;11.75;6.95;;;;;;;;;;6179174;23;20504;-76
2022/10/13 17:49:23;;;;;;;6.55;5.95;;;;;;;;;;6152311;23;20009;-74
2022/10/13 17:51:49;;;;;;;7.72;6.07;;;;;;;;;;6151419;23;20052;-74
2022/10/13 17:54:15;;;;;;;10.18;5.43;;;;;;;;;;6178173;23;20068;-73
2022/10/13 17:56:41;;;;;;;7.90;5.60;;;;;;;;;;6177185;23;20012;-74
2022/10/13 17:59:08;;;;;;;7.43;5.63;;;;;;;;;;6151251;23;20028;-74
2022/10/13 18:01:35;;;;;;;9.52;5.35;;;;;;;;;;6177761;23;20442;-73
2022/10/13 18:04:01;;;;;;;10.13;5.88;;;;;;;;;;6177997;23;20015;-75
2022/10/13 18:06:28;;;;;;;11.70;6.55;;;;;;;;;;6176907;23;20017;-76
2022/10/13 18:08:54;;;;;;;9.27;6.60;;;;;;;;;;6177718;23;20017;-76
2022/10/13 18:11:21;;;;;;;11.82;7.70;;;;;;;;;;6178142;23;20083;-75
2022/10/13 18:13:47;;;;;;;14.10;6.95;;;;;;;;;;6151364;23;20365;-74
2022/10/13 18:16:13;;;;;;;8.25;6.60;;;;;;;;;;6151083;23;20020;-75
2022/10/13 18:18:40;;;;;;;14.20;9.35;;;;;;;;;;6151190;23;20532;-75
2022/10/13 18:21:06;;;;;;;9.00;7.65;;;;;;;;;;6152972;23;20020;-74
2022/10/13 18:23:32;;;;;;;8.63;7.10;;;;;;;;;;6179678;23;20081;-75
2022/10/13 18:26:02;;;;;;;12.10;7.05;;;;;;;;;;6179506;23;20017;-76
2022/10/13 18:28:29;;;;;;;11.05;6.18;;;;;;;;;;6152952;23;20099;-74
2022/10/13 18:31:00;;;;;;;11.00;6.93;;;;;;;;;;6179392;23;20017;-75
2022/10/13 18:33:26;;;;;;;8.68;6.30;;;;;;;;;;6128776;23;20024;-74
2022/10/13 18:35:52;;;;;;;12.93;6.25;;;;;;;;;;6179184;23;20033;-74
2022/10/13 18:38:18;;;;;;;11.55;6.95;;;;;;;;;;6178252;23;20021;-75
2022/10/13 18:40:44;;;;;;;15.93;6.30;;;;;;;;;;6126718;23;20512;-76
2022/10/13 18:43:10;;;;;;;14.10;5.97;;;;;;;;;;6177271;23;20020;-75
2022/10/13 18:45:36;;;;;;;10.20;6.28;;;;;;;;;;6179019;23;20013;-74
2022/10/13 18:48:03;;;;;;;9.80;6.00;;;;;;;;;;6178967;23;20009;-74
2022/10/13 18:50:28;;;;;;;8.05;6.28;;;;;;;;;;6177880;23;20013;-75
2022/10/13 18:52:54;;;;;;;14.55;5.93;;;;;;;;;;6153203;23;20013;-75
2022/10/13 18:55:20;;;;;;;11.80;6.28;;;;;;;;;;6178792;23;20016;-74
2022/10/13 18:57:46;;;;;;;9.10;6.13;;;;;;;;;;6178278;23;20025;-75
2022/10/13 19:00:12;;;;;;;10.35;7.35;;;;;;;;;;6178849;23;20059;-74
2022/10/13 19:02:39;;;;;;;7.80;6.45;;;;;;;;;;6153106;23;20041;-74
2022/10/13 19:05:05;;;;;;;17.17;7.72;;;;;;;;;;6178907;23;20461;-74
2022/10/13 19:07:31;;;;;;;19.27;6.85;;;;;;;;;;6103558;23;20017;-75
2022/10/13 19:09:58;;;;;;;12.90;6.75;;;;;;;;;;6179625;23;20016;-74
2022/10/13 19:12:23;;;;;;;14.35;8.57;;;;;;;;;;6179523;23;20508;-74
2022/10/13 19:14:49;;;;;;;15.02;6.95;;;;;;;;;;6179684;23;20579;-75
2022/10/13 19:17:15;;;;;;;13.07;6.43;;;;;;;;;;6153266;23;20448;-75
2022/10/13 19:19:41;;;;;;;18.17;6.63;;;;;;;;;;6153302;23;20013;-75
2022/10/13 19:22:08;;;;;;;9.98;6.65;;;;;;;;;;6153538;23;20024;-75
2022/10/13 19:24:35;;;;;;;14.23;7.03;;;;;;;;;;6155528;23;20096;-75
2022/10/13 19:27:01;;;;;;;20.98;7.50;;;;;;;;;;6180877;23;20013;-75
2022/10/13 19:29:29;;;;;;;13.38;7.95;;;;;;;;;;6155922;23;20339;-75
2022/10/13 19:31:56;;;;;;;11.57;6.28;;;;;;;;;;6156171;23;20025;-75
2022/10/13 19:34:22;;;;;;;15.02;7.15;;;;;;;;;;6155889;23;20037;-75
2022/10/13 19:36:48;;;;;;;13.27;7.03;;;;;;;;;;6181825;23;20095;-75
2022/10/13 19:39:15;;;;;;;9.10;7.28;;;;;;;;;;6131062;23;20386;-75
2022/10/13 19:41:41;;;;;;;20.20;7.75;;;;;;;;;;6155877;23;20017;-75
2022/10/13 19:44:07;;;;;;;17.55;7.35;;;;;;;;;;6182195;23;20565;-75
2022/10/13 19:46:40;;;;;;;17.48;7.03;;;;;;;;;;6157719;23;20013;-75
2022/10/13 19:49:06;;;;;;;16.75;8.73;;;;;;;;;;6165998;23;20017;-75
2022/10/13 19:51:34;;;;;;;14.35;7.18;;;;;;;;;;6166936;23;20085;-75
2022/10/13 19:54:00;;;;;;;14.77;7.72;;;;;;;;;;6190733;23;20013;-76
2022/10/13 19:56:32;;;;;;;22.98;9.63;;;;;;;;;;6159476;23;20017;-76
2022/10/13 19:58:59;;;;;;;14.88;8.32;;;;;;;;;;6183484;23;20025;-76
2022/10/13 20:01:25;;;;;;;17.33;8.52;;;;;;;;;;6132243;23;20468;-76
2022/10/13 20:03:51;;;;;;;13.13;8.13;;;;;;;;;;6155700;23;20040;-76
2022/10/13 20:06:18;;;;;;;17.92;10.00;;;;;;;;;;6155911;23;20108;-76
2022/10/13 20:08:44;;;;;;;14.57;9.30;;;;;;;;;;6130781;23;20075;-76
2022/10/13 20:11:11;;;;;;;14.00;10.15;;;;;;;;;;6181370;23;20454;-75
2022/10/13 20:13:37;;;;;;;25.73;11.40;;;;;;;;;;6155024;23;20101;-76
2022/10/13 20:16:04;;;;;;;15.30;9.40;;;;;;;;;;6181241;23;20357;-76
2022/10/13 20:18:30;;;;;;;16.13;9.38;;;;;;;;;;6181317;23;20414;-75
2022/10/13 20:20:56;;;;;;;10.60;8.10;;;;;;;;;;6181076;23;20041;-75
2022/10/13 20:23:22;;;;;;;10.50;7.13;;;;;;;;;;6154812;23;20048;-75
2022/10/13 20:25:48;;;;;;;14.00;8.65;;;;;;;;;;6154479;23;20017;-76
2022/10/13 20:28:13;;;;;;;14.30;7.43;;;;;;;;;;6180913;23;20021;-75
2022/10/13 20:30:39;;;;;;;18.60;8.07;;;;;;;;;;6154701;23;20454;-75
2022/10/13 20:33:05;;;;;;;10.32;8.32;;;;;;;;;;6154557;23;20071;-75
2022/10/13 20:35:31;;;;;;;17.13;9.80;;;;;;;;;;6130539;23;20016;-75
2022/10/13 20:37:58;;;;;;;13.05;10.75;;;;;;;;;;6153940;23;20520;-75
2022/10/13 20:40:24;;;;;;;14.73;9.40;;;;;;;;;;6181132;23;20464;-75
2022/10/13 20:42:50;;;;;;;13.75;7.82;;;;;;;;;;6154528;23;20023;-75
2022/10/13 20:45:16;;;;;;;9.35;7.40;;;;;;;;;;6130250;23;20634;-75
2022/10/13 20:47:42;;;;;;;8.10;7.25;;;;;;;;;;6130370;23;20017;-75
2022/10/13 20:50:08;;;;;;;12.52;7.32;;;;;;;;;;6181323;23;20013;-75
2022/10/13 20:52:34;;;;;;;14.00;7.50;;;;;;;;;;6180746;23;20365;-76
2022/10/13 20:55:00;;;;;;;10.15;8.27;;;;;;;;;;6129891;23;20076;-76
2022/10/13 20:57:27;;;;;;;8.80;8.00;;;;;;;;;;6154005;23;20119;-76
2022/10/13 20:59:53;;;;;;;8.60;7.75;;;;;;;;;;6180638;23;20009;-76
2022/10/13 21:02:20;;;;;;;8.80;6.70;;;;;;;;;;6154184;23;20093;-75
2022/10/13 21:04:48;;;;;;;7.72;6.93;;;;;;;;;;6180597;23;20013;-75
2022/10/13 21:07:13;;;;;;;7.20;6.60;;;;;;;;;;6180467;23;20021;-75
2022/10/13 21:09:39;;;;;;;7.38;6.68;;;;;;;;;;6130100;23;20414;-75
2022/10/13 21:12:05;;;;;;;9.20;7.53;;;;;;;;;;6180414;23;20027;-75
2022/10/13 21:14:40;;;;;;;7.45;6.85;;;;;;;;;;6156418;23;20020;-75
2022/10/13 21:17:06;;;;;;;12.98;7.30;;;;;;;;;;6180301;23;20017;-75
2022/10/13 21:19:57;;;;;;;12.57;6.75;;;;;;;;;;6154446;23;20020;-75
2022/10/13 21:22:23;;;;;;;8.20;7.40;;;;;;;;;;6179835;23;20017;-74
2022/10/13 21:24:50;;;;;;;7.78;7.03;;;;;;;;;;6154268;23;20015;-76
2022/10/13 21:27:16;;;;;;;11.45;7.40;;;;;;;;;;6180485;23;20421;-76
2022/10/13 21:29:42;;;;;;;11.65;7.70;;;;;;;;;;6180738;23;20357;-75
2022/10/13 21:32:09;;;;;;;11.85;8.35;;;;;;;;;;6179933;23;20021;-75
2022/10/13 21:34:35;;;;;;;14.10;6.70;;;;;;;;;;6181017;23;20016;-75
2022/10/13 21:37:02;;;;;;;14.48;7.63;;;;;;;;;;6154053;23;20021;-75
2022/10/13 21:39:27;;;;;;;8.20;7.40;;;;;;;;;;6154040;23;20083;-76
2022/10/13 21:41:54;;;;;;;8.68;7.32;;;;;;;;;;6129597;23;20500;-76
2022/10/13 21:44:20;;;;;;;9.40;7.70;;;;;;;;;;6180244;23;20335;-76
2022/10/13 21:46:46;;;;;;;11.13;7.30;;;;;;;;;;6129951;23;20151;-76
2022/10/13 21:49:12;;;;;;;8.77;6.75;;;;;;;;;;6126290;23;20458;-75
2022/10/13 21:51:38;;;;;;;8.90;7.95;;;;;;;;;;6179190;23;20078;-76
2022/10/13 21:54:05;;;;;;;10.40;8.50;;;;;;;;;;6180098;23;20017;-76
2022/10/13 21:56:31;;;;;;;18.23;9.73;;;;;;;;;;6129459;23;20020;-76
2022/10/13 21:58:58;;;;;;;8.68;7.35;;;;;;;;;;6154495;23;20029;-76
2022/10/13 22:01:24;;;;;;;8.57;6.43;;;;;;;;;;6181520;23;20512;-76
2022/10/13 22:03:53;;;;;;;14.95;8.77;;;;;;;;;;6154509;23;20012;-76
2022/10/13 22:06:24;;;;;;;7.30;6.60;;;;;;;;;;6181153;23;20017;-76
2022/10/13 22:08:50;;;;;;;11.13;9.25;;;;;;;;;;6181719;23;20354;-75
2022/10/13 22:11:23;;;;;;;14.52;8.77;;;;;;;;;;6155376;23;20017;-76
2022/10/13 22:13:49;;;;;;;11.95;7.53;;;;;;;;;;6180280;23;20112;-76
2022/10/13 22:16:15;;;;;;;9.50;7.38;;;;;;;;;;6180152;23;20529;-76
2022/10/13 22:18:43;;;;;;;16.90;9.38;;;;;;;;;;6180440;23;20485;-76
2022/10/13 22:21:14;;;;;;;12.45;8.55;;;;;;;;;;6180074;23;20077;-77
2022/10/13 22:23:40;;;;;;;14.68;9.35;;;;;;;;;;6153906;23;20420;-76
2022/10/13 22:26:07;;;;;;;7.88;6.80;;;;;;;;;;6154091;23;20410;-77
2022/10/13 22:28:33;;;;;;;8.90;6.85;;;;;;;;;;6153872;23;20013;-80
2022/10/13 22:31:03;;;;;;;6.90;6.30;;;;;;;;;;6153741;23;20016;-76
2022/10/13 22:33:29;;;;;;;13.93;8.18;;;;;;;;;;6153711;23;20100;-76
2022/10/13 22:35:55;;;;;;;13.55;8.93;;;;;;;;;;6153616;23;20047;-76
2022/10/13 22:38:22;;;;;;;11.95;8.57;;;;;;;;;;6179904;23;20466;-76
2022/10/13 22:40:48;;;;;;;18.05;9.52;;;;;;;;;;6154023;23;20045;-75
2022/10/13 22:43:14;;;;;;;14.75;8.90;;;;;;;;;;6153244;23;20017;-76
2022/10/13 22:45:47;;;;;;;16.45;8.25;;;;;;;;;;6105175;23;20017;-76
2022/10/13 22:48:13;;;;;;;13.07;8.13;;;;;;;;;;6153754;23;20350;-76
2022/10/13 22:50:39;;;;;;;17.17;8.93;;;;;;;;;;6178447;23;20070;-74
2022/10/13 22:53:05;;;;;;;11.95;8.52;;;;;;;;;;6179560;23;20071;-75
2022/10/13 22:55:30;;;;;;;20.02;9.73;;;;;;;;;;6153590;23;20152;-75
2022/10/13 22:57:57;;;;;;;14.93;7.70;;;;;;;;;;6179403;23;20029;-76
2022/10/13 23:00:22;;;;;;;12.93;8.20;;;;;;;;;;6180455;23;20009;-75
2022/10/13 23:02:48;;;;;;;8.98;7.32;;;;;;;;;;6181882;23;20020;-76
2022/10/13 23:05:14;;;;;;;11.23;7.65;;;;;;;;;;6181522;23;20020;-76
2022/10/13 23:07:41;;;;;;;19.50;9.35;;;;;;;;;;6181768;23;20020;-75
2022/10/13 23:10:06;;;;;;;9.20;7.75;;;;;;;;;;6155482;23;20017;-75
2022/10/13 23:12:32;;;;;;;18.92;7.07;;;;;;;;;;6155302;23;20116;-74
2022/10/13 23:14:58;;;;;;;9.30;6.25;;;;;;;;;;6181627;23;20037;-75
2022/10/13 23:17:24;;;;;;;11.63;6.88;;;;;;;;;;6181814;23;20051;-75
2022/10/13 23:19:50;;;;;;;8.55;6.60;;;;;;;;;;6156332;23;20016;-75
2022/10/13 23:22:16;;;;;;;13.43;7.60;;;;;;;;;;6181778;23;20017;-75
2022/10/13 23:24:43;;;;;;;6.20;5.60;;;;;;;;;;6181704;23;20083;-76
2022/10/13 23:27:09;;;;;;;8.60;5.95;;;;;;;;;;6181260;23;20043;-76
2022/10/13 23:29:35;;;;;;;6.63;6.03;;;;;;;;;;6155015;23;20016;-76
2022/10/13 23:32:01;;;;;;;7.43;6.13;;;;;;;;;;6130439;23;20029;-76
2022/10/13 23:34:28;;;;;;;9.60;5.28;;;;;;;;;;6155177;23;20019;-76
2022/10/13 23:36:53;;;;;;;9.65;5.57;;;;;;;;;;6181709;23;20013;-76
2022/10/13 23:39:19;;;;;;;6.18;5.25;;;;;;;;;;6130327;23;20012;-76
2022/10/13 23:41:45;;;;;;;9.48;6.07;;;;;;;;;;6155484;23;20361;-76
2022/10/13 23:44:11;;;;;;;5.68;4.97;;;;;;;;;;6181061;23;20013;-77
2022/10/13 23:46:37;;;;;;;10.27;5.03;;;;;;;;;;6181478;23;20048;-77
2022/10/13 23:49:05;;;;;;;7.57;5.50;;;;;;;;;;6130051;23;20365;-76
2022/10/13 23:51:31;;;;;;;8.25;5.18;;;;;;;;;;6181598;23;20036;-76
2022/10/13 23:53:58;;;;;;;9.98;4.88;;;;;;;;;;6130677;23;20013;-76
2022/10/13 23:56:24;;;;;;;8.43;5.38;;;;;;;;;;6155358;23;20096;-77
2022/10/13 23:58:50;;;;;;;7.07;5.07;;;;;;;;;;6181208;23;20024;-76
